createdAt,value
2018-11-26T00:02:05.564Z,87.22
2018-11-26T00:04:34.357Z,87.50
2018-11-26T00:07:03.391Z,86.95
2018-11-26T00:09:33.591Z,86.57
2018-11-26T00:12:03.975Z,86.90
2018-11-26T00:14:32.808Z,86.93
2018-11-26T00:17:02.999Z,86.77
2018-11-26T00:19:32.500Z,86.76
2018-11-26T00:22:01.147Z,86.52
2018-11-26T00:24:30.400Z,86.99
2018-11-26T00:27:00.095Z,86.78
2018-11-26T00:29:28.949Z,87.22
2018-11-26T00:31:58.039Z,87.04
2018-11-26T00:34:27.165Z,86.76
2018-11-26T00:36:55.765Z,86.82
2018-11-26T00:39:25.284Z,86.36
2018-11-26T00:41:53.879Z,85.67
2018-11-26T00:44:22.504Z,86.06
2018-11-26T00:46:51.130Z,85.80
2018-11-26T00:49:19.742Z,85.70
2018-11-26T00:51:48.717Z,85.87
2018-11-26T00:54:17.602Z,85.87
2018-11-26T00:56:46.907Z,86.09
2018-11-26T00:59:15.817Z,85.88
2018-11-26T01:01:45.106Z,85.72
2018-11-26T01:04:14.291Z,86.36
2018-11-26T01:06:42.884Z,86.16
2018-11-26T01:09:11.914Z,86.01
2018-11-26T01:11:42.837Z,86.02
2018-11-26T01:14:12.230Z,85.71
2018-11-26T01:16:41.161Z,86.10
2018-11-26T01:19:10.490Z,86.18
2018-11-26T01:21:39.038Z,86.34
2018-11-26T01:24:08.746Z,86.37
2018-11-26T01:26:38.382Z,86.65
2018-11-26T01:29:07.339Z,86.30
2018-11-26T01:31:36.487Z,86.18
2018-11-26T01:34:06.140Z,86.24
2018-11-26T01:36:35.226Z,86.09
2018-11-26T01:39:04.019Z,85.86
2018-11-26T01:41:32.852Z,86.16
2018-11-26T01:44:02.854Z,85.97
2018-11-26T01:46:32.855Z,85.97
2018-11-26T01:49:01.410Z,85.81
2018-11-26T01:51:31.176Z,85.64
2018-11-26T01:53:59.954Z,85.73
2018-11-26T01:56:29.104Z,85.63
2018-11-26T01:58:58.392Z,85.33
2018-11-26T02:01:26.991Z,85.31
2018-11-26T02:03:56.024Z,85.40
2018-11-26T02:06:24.972Z,85.61
2018-11-26T02:08:54.178Z,85.60
2018-11-26T02:11:23.363Z,85.12
2018-11-26T02:13:53.258Z,85.20
2018-11-26T02:16:22.191Z,84.98
2018-11-26T02:18:51.066Z,85.35
2018-11-26T02:21:20.541Z,85.56
2018-11-26T02:23:49.116Z,85.49
2018-11-26T02:26:17.995Z,85.60
2018-11-26T02:28:46.604Z,85.65
2018-11-26T02:31:15.837Z,85.42
2018-11-26T02:33:45.257Z,85.16
2018-11-26T02:36:14.253Z,85.61
2018-11-26T02:38:44.005Z,85.35
2018-11-26T02:41:13.107Z,85.62
2018-11-26T02:43:41.912Z,85.17
2018-11-26T02:46:11.444Z,84.80
2018-11-26T02:48:40.505Z,85.00
2018-11-26T02:51:10.413Z,84.96
2018-11-26T02:53:39.700Z,84.94
2018-11-26T02:56:08.936Z,85.19
2018-11-26T02:58:38.069Z,85.54
2018-11-26T03:01:08.361Z,85.52
2018-11-26T03:03:37.558Z,85.54
2018-11-26T03:06:06.708Z,85.12
2018-11-26T03:08:37.899Z,85.07
2018-11-26T03:11:08.089Z,85.19
2018-11-26T03:13:38.109Z,85.41
2018-11-26T03:16:07.243Z,85.58
2018-11-26T03:18:36.922Z,85.76
2018-11-26T03:21:05.990Z,85.51
2018-11-26T03:23:35.180Z,85.56
2018-11-26T03:26:03.725Z,84.94
2018-11-26T03:28:32.310Z,85.07
2018-11-26T03:31:01.664Z,85.33
2018-11-26T03:33:30.680Z,85.31
2018-11-26T03:35:59.489Z,85.50
2018-11-26T03:39:07.353Z,85.58
2018-11-26T03:41:36.589Z,85.66
2018-11-26T03:44:05.689Z,85.72
2018-11-26T03:46:35.520Z,85.78
2018-11-26T03:49:04.112Z,85.20
2018-11-26T03:51:33.692Z,85.98
2018-11-26T03:54:04.176Z,85.32
2018-11-26T03:56:33.366Z,85.62
2018-11-26T03:59:02.859Z,85.98
2018-11-26T04:01:32.109Z,86.12
2018-11-26T04:04:01.030Z,86.27
2018-11-26T04:06:29.928Z,86.11
2018-11-26T04:08:59.434Z,86.32
2018-11-26T04:11:28.748Z,86.09
2018-11-26T04:13:57.341Z,85.90
2018-11-26T04:16:27.001Z,86.04
2018-11-26T04:18:56.823Z,86.39
2018-11-26T04:21:27.219Z,86.26
2018-11-26T04:23:56.573Z,86.73
2018-11-26T04:26:25.728Z,86.43
2018-11-26T04:28:54.869Z,86.99
2018-11-26T04:31:24.061Z,86.42
2018-11-26T04:33:55.198Z,86.62
2018-11-26T04:36:24.769Z,86.66
2018-11-26T04:38:53.995Z,86.87
2018-11-26T04:41:23.073Z,86.67
2018-11-26T04:43:52.878Z,86.84
2018-11-26T04:46:22.060Z,86.84
2018-11-26T04:48:51.268Z,86.86
2018-11-26T04:51:21.069Z,86.53
2018-11-26T04:53:51.237Z,86.57
2018-11-26T04:56:20.900Z,87.09
2018-11-26T04:58:50.549Z,87.25
2018-11-26T05:01:19.368Z,87.10
2018-11-26T05:03:49.390Z,87.13
2018-11-26T05:06:18.279Z,87.28
2018-11-26T05:08:46.839Z,86.97
2018-11-26T05:11:15.636Z,87.29
2018-11-26T05:13:44.408Z,87.11
2018-11-26T05:16:14.529Z,86.81
2018-11-26T05:18:43.480Z,87.15
2018-11-26T05:21:12.460Z,87.01
2018-11-26T05:23:41.976Z,86.91
2018-11-26T05:26:10.682Z,86.98
2018-11-26T05:28:39.579Z,87.06
2018-11-26T05:31:08.733Z,86.54
2018-11-26T05:33:37.757Z,86.31
2018-11-26T05:36:06.653Z,86.23
2018-11-26T05:38:35.460Z,86.13
2018-11-26T05:41:04.279Z,86.20
2018-11-26T05:43:33.497Z,86.00
2018-11-26T05:46:02.882Z,86.41
2018-11-26T05:48:33.371Z,86.25
2018-11-26T05:51:02.300Z,86.34
2018-11-26T05:53:31.676Z,86.27
2018-11-26T05:56:00.256Z,86.38
2018-11-26T05:58:29.378Z,86.46
2018-11-26T06:00:59.144Z,86.14
2018-11-26T06:03:28.195Z,86.66
2018-11-26T06:05:57.152Z,86.20
2018-11-26T06:08:26.255Z,86.31
2018-11-26T06:10:55.416Z,86.42
2018-11-26T06:13:25.235Z,86.35
2018-11-26T06:15:54.983Z,86.44
2018-11-26T06:18:23.914Z,86.62
2018-11-26T06:20:52.500Z,86.38
2018-11-26T06:23:22.090Z,86.66
2018-11-26T06:25:53.285Z,86.73
2018-11-26T06:28:23.377Z,86.42
2018-11-26T06:30:52.893Z,86.72
2018-11-26T06:33:29.843Z,86.81
2018-11-26T06:35:58.536Z,87.12
2018-11-26T06:38:32.327Z,86.65
2018-11-26T06:41:01.919Z,86.61
2018-11-26T06:43:32.648Z,86.97
2018-11-26T06:46:06.664Z,86.86
2018-11-26T06:48:43.447Z,86.43
2018-11-26T06:51:12.858Z,86.87
2018-11-26T06:53:43.949Z,86.92
2018-11-26T06:56:14.980Z,86.98
2018-11-26T06:58:45.571Z,87.27
2018-11-26T07:01:21.369Z,87.29
2018-11-26T07:03:52.331Z,87.12
2018-11-26T07:06:21.565Z,87.29
2018-11-26T07:08:54.069Z,86.80
2018-11-26T07:11:30.170Z,87.05
2018-11-26T07:14:00.128Z,86.79
2018-11-26T07:16:30.625Z,86.44
2018-11-26T07:18:59.705Z,86.50
2018-11-26T07:21:28.481Z,86.37
2018-11-26T07:23:58.833Z,86.04
2018-11-26T07:26:28.875Z,85.49
2018-11-26T07:28:59.109Z,85.56
2018-11-26T07:31:28.532Z,85.39
2018-11-26T07:34:02.121Z,85.18
2018-11-26T07:36:35.132Z,84.86
2018-11-26T07:39:04.998Z,84.67
2018-11-26T07:41:33.778Z,84.40
2018-11-26T07:44:03.279Z,84.42
2018-11-26T07:46:33.479Z,84.26
2018-11-26T07:49:03.301Z,84.30
2018-11-26T07:51:32.745Z,83.89
2018-11-26T07:54:03.469Z,84.40
2018-11-26T07:56:32.453Z,84.33
2018-11-26T07:59:05.514Z,83.66
2018-11-26T08:01:35.069Z,83.66
2018-11-26T08:04:06.807Z,83.12
2018-11-26T08:06:35.916Z,83.50
2018-11-26T08:09:06.281Z,83.47
2018-11-26T08:11:35.716Z,83.41
2018-11-26T08:14:06.551Z,83.33
2018-11-26T08:16:35.138Z,83.02
2018-11-26T08:19:03.957Z,83.01
2018-11-26T08:21:33.776Z,82.92
2018-11-26T08:24:03.836Z,82.24
2018-11-26T08:26:34.729Z,82.22
2018-11-26T08:29:04.708Z,82.56
2018-11-26T08:31:36.265Z,81.96
2018-11-26T08:34:07.016Z,82.08
2018-11-26T08:36:45.457Z,82.23
2018-11-26T08:39:22.724Z,82.33
2018-11-26T08:41:52.852Z,81.88
2018-11-26T08:44:28.665Z,81.94
2018-11-26T08:47:04.633Z,82.40
2018-11-26T08:49:34.947Z,81.41
2018-11-26T08:52:04.453Z,81.59
2018-11-26T08:54:34.410Z,82.16
2018-11-26T08:57:03.460Z,81.62
2018-11-26T08:59:33.617Z,81.98
2018-11-26T09:02:02.434Z,81.98
2018-11-26T09:04:34.331Z,82.30
2018-11-26T09:07:03.423Z,81.76
2018-11-26T09:09:32.959Z,81.72
2018-11-26T09:12:00.980Z,81.06
2018-11-26T09:14:32.638Z,81.90
2018-11-26T09:17:02.947Z,81.94
2018-11-26T09:19:33.038Z,81.69
2018-11-26T09:22:10.243Z,81.94
2018-11-26T09:24:43.904Z,82.07
2018-11-26T09:27:19.412Z,81.91
2018-11-26T09:29:51.430Z,81.66
2018-11-26T09:32:29.977Z,81.51
2018-11-26T09:34:59.995Z,81.65
2018-11-26T09:37:33.949Z,82.17
2018-11-26T09:40:10.072Z,81.75
2018-11-26T09:42:44.870Z,81.70
2018-11-26T09:45:20.090Z,81.54
2018-11-26T09:47:50.049Z,81.69
2018-11-26T09:50:21.670Z,81.98
2018-11-26T09:52:56.627Z,81.22
2018-11-26T09:55:32.170Z,81.38
2018-11-26T09:58:08.154Z,81.16
2018-11-26T10:00:40.727Z,81.02
2018-11-26T10:03:11.895Z,80.90
2018-11-26T10:05:51.200Z,81.45
2018-11-26T10:08:21.385Z,81.71
2018-11-26T10:11:00.446Z,81.80
2018-11-26T10:13:29.245Z,81.81
2018-11-26T10:16:04.798Z,81.67
2018-11-26T10:18:34.014Z,81.65
2018-11-26T10:21:04.728Z,81.44
2018-11-26T10:23:33.790Z,81.28
2018-11-26T10:26:03.417Z,80.82
2018-11-26T10:28:34.175Z,81.14
2018-11-26T10:31:05.022Z,81.04
2018-11-26T10:33:36.302Z,81.16
2018-11-26T10:36:07.594Z,80.47
2018-11-26T10:38:37.300Z,80.57
2018-11-26T10:41:11.192Z,80.89
2018-11-26T10:43:40.357Z,80.63
2018-11-26T10:46:15.765Z,80.65
2018-11-26T10:48:45.257Z,80.28
2018-11-26T10:51:15.355Z,80.55
2018-11-26T10:53:45.354Z,80.04
2018-11-26T10:56:14.755Z,79.96
2018-11-26T10:58:43.648Z,79.76
2018-11-26T11:01:17.692Z,79.43
2018-11-26T11:03:46.531Z,79.68
2018-11-26T11:06:15.384Z,79.53
2018-11-26T11:08:44.907Z,79.57
2018-11-26T11:11:13.445Z,79.67
2018-11-26T11:13:43.173Z,79.25
2018-11-26T11:16:13.613Z,79.36
2018-11-26T11:18:42.440Z,79.41
2018-11-26T11:21:17.047Z,79.49
2018-11-26T11:23:46.361Z,79.54
2018-11-26T11:26:29.937Z,79.73
2018-11-26T11:29:00.663Z,79.69
2018-11-26T11:34:08.411Z,80.02
2018-11-26T11:36:36.966Z,79.80
2018-11-26T11:39:12.019Z,79.85
2018-11-26T11:41:47.586Z,79.66
2018-11-26T11:44:31.478Z,79.87
2018-11-26T11:47:07.537Z,79.85
2018-11-26T11:49:45.431Z,79.71
2018-11-26T11:52:15.389Z,79.58
2018-11-26T11:54:47.667Z,79.20
2018-11-26T11:57:29.643Z,79.32
2018-11-26T12:00:08.242Z,79.44
2018-11-26T12:02:39.968Z,79.49
2018-11-26T12:05:10.543Z,79.33
2018-11-26T12:07:39.158Z,78.96
2018-11-26T12:10:09.819Z,79.04
2018-11-26T12:12:39.852Z,78.41
2018-11-26T12:15:10.431Z,78.36
2018-11-26T12:17:39.383Z,78.33
2018-11-26T12:20:09.798Z,77.84
2018-11-26T12:22:38.705Z,77.61
2018-11-26T12:25:08.870Z,77.23
2018-11-26T12:27:38.525Z,76.62
2018-11-26T12:30:24.833Z,76.82
2018-11-26T12:32:54.488Z,76.00
2018-11-26T12:35:24.248Z,75.74
2018-11-26T12:37:53.076Z,75.80
2018-11-26T12:40:25.456Z,76.26
2018-11-26T12:42:55.551Z,75.94
2018-11-26T12:45:28.222Z,75.99
2018-11-26T12:47:56.873Z,75.66
2018-11-26T12:50:25.768Z,75.51
2018-11-26T12:52:54.961Z,75.56
2018-11-26T12:55:24.063Z,75.71
2018-11-26T12:57:53.633Z,75.83
2018-11-26T13:00:25.304Z,75.84
2018-11-26T13:02:59.043Z,75.43
2018-11-26T13:05:27.633Z,75.96
2018-11-26T13:07:57.157Z,75.85
2018-11-26T13:10:26.165Z,75.10
2018-11-26T13:12:55.563Z,75.61
2018-11-26T13:15:25.495Z,74.42
2018-11-26T13:17:59.607Z,74.29
2018-11-26T13:20:29.433Z,74.00
2018-11-26T13:22:58.088Z,74.22
2018-11-26T13:25:30.725Z,73.92
2018-11-26T13:28:29.644Z,74.67
2018-11-26T13:31:11.506Z,74.87
2018-11-26T13:33:58.564Z,75.09
2018-11-26T13:36:34.146Z,75.00
2018-11-26T13:42:06.519Z,75.51
2018-11-26T13:44:41.889Z,75.53
2018-11-26T13:47:23.067Z,74.98
2018-11-26T13:50:09.566Z,74.51
2018-11-26T13:52:48.951Z,75.29
2018-11-26T13:55:27.414Z,75.53
2018-11-26T13:58:04.100Z,75.87
2018-11-26T14:00:34.328Z,76.59
2018-11-26T14:03:14.426Z,76.46
2018-11-26T14:05:49.553Z,76.27
2018-11-26T14:08:18.183Z,76.51
2018-11-26T14:10:57.221Z,76.27
2018-11-26T14:13:32.839Z,76.38
2018-11-26T14:16:03.758Z,76.25
2018-11-26T14:18:38.634Z,76.62
2018-11-26T14:21:16.695Z,76.93
2018-11-26T14:23:55.949Z,77.11
2018-11-26T14:26:24.605Z,76.29
2018-11-26T14:29:01.720Z,76.18
2018-11-26T14:31:38.842Z,76.51
2018-11-26T14:34:12.261Z,76.44
2018-11-26T14:36:48.430Z,76.19
2018-11-26T14:39:31.672Z,76.25
2018-11-26T14:42:10.177Z,76.44
2018-11-26T14:44:47.545Z,76.97
2018-11-26T14:47:22.004Z,76.61
2018-11-26T14:49:52.394Z,76.95
2018-11-26T14:52:26.795Z,77.04
2018-11-26T14:54:58.335Z,76.93
2018-11-26T14:57:32.857Z,76.83
2018-11-26T15:00:03.978Z,77.29
2018-11-26T15:02:51.204Z,77.83
2018-11-26T15:05:23.935Z,77.90
2018-11-26T15:07:59.015Z,77.62
2018-11-26T15:10:28.666Z,77.66
2018-11-26T15:13:01.487Z,78.08
2018-11-26T15:15:33.917Z,77.81
2018-11-26T15:18:05.700Z,77.86
2018-11-26T15:20:40.463Z,78.33
2018-11-26T15:23:13.074Z,78.16
2018-11-26T15:25:41.887Z,78.41
2018-11-26T15:28:31.786Z,78.87
2018-11-26T15:31:06.275Z,78.50
2018-11-26T15:36:16.117Z,78.67
2018-11-26T15:38:45.329Z,78.93
2018-11-26T15:41:15.422Z,79.11
2018-11-26T15:43:44.987Z,79.04
2018-11-26T15:46:13.602Z,79.11
2018-11-26T15:48:42.503Z,79.52
2018-11-26T15:51:11.393Z,79.81
2018-11-26T15:53:40.723Z,79.21
2018-11-26T15:56:09.647Z,79.29
2018-11-26T15:58:39.257Z,78.95
2018-11-26T16:01:08.347Z,79.11
2018-11-26T16:03:38.660Z,78.69
2018-11-26T16:06:07.554Z,78.74
2018-11-26T16:08:36.320Z,79.07
2018-11-26T16:11:05.614Z,79.07
2018-11-26T16:13:35.258Z,78.93
2018-11-26T16:16:07.403Z,78.28
2018-11-26T16:18:42.981Z,78.13
2018-11-26T16:21:16.535Z,78.19
2018-11-26T16:23:46.197Z,78.11
2018-11-26T16:26:15.754Z,78.09
2018-11-26T16:28:47.130Z,78.07
2018-11-26T16:31:18.313Z,78.14
2018-11-26T16:33:58.587Z,78.08
2018-11-26T16:36:27.703Z,78.21
2018-11-26T16:38:58.006Z,78.65
2018-11-26T16:41:28.632Z,78.61
2018-11-26T16:44:04.586Z,78.49
2018-11-26T16:46:35.768Z,78.52
2018-11-26T16:49:12.602Z,78.40
2018-11-26T16:51:45.813Z,79.00
2018-11-26T16:57:02.929Z,78.96
2018-11-26T16:59:35.487Z,79.37
2018-11-26T17:02:11.881Z,79.29
2018-11-26T17:04:42.427Z,79.17
2018-11-26T17:07:12.986Z,79.40
2018-11-26T17:09:43.278Z,79.51
2018-11-26T17:12:19.502Z,79.73
2018-11-26T17:14:48.836Z,79.28
2018-11-26T17:17:17.940Z,79.66
2018-11-26T17:19:58.910Z,79.87
2018-11-26T17:22:32.796Z,79.97
2018-11-26T17:25:02.615Z,80.31
2018-11-26T17:27:37.153Z,80.44
2018-11-26T17:30:16.314Z,80.20
2018-11-26T17:32:46.287Z,80.56
2018-11-26T17:35:16.368Z,80.32
2018-11-26T17:37:52.051Z,80.49
2018-11-26T17:40:47.108Z,80.49
2018-11-26T17:43:16.179Z,81.01
2018-11-26T17:45:45.157Z,81.46
2018-11-26T17:48:29.124Z,81.81
2018-11-26T17:51:00.414Z,81.57
2018-11-26T17:53:33.097Z,81.90
2018-11-26T17:56:08.224Z,81.72
2018-11-26T17:58:43.318Z,82.18
2018-11-26T18:01:25.216Z,82.07
2018-11-26T18:03:56.156Z,82.40
2018-11-26T18:06:25.057Z,82.25
2018-11-26T18:08:54.814Z,82.27
2018-11-26T18:11:26.459Z,82.34
2018-11-26T18:14:05.818Z,82.10
2018-11-26T18:16:40.258Z,82.35
2018-11-26T18:22:02.169Z,82.32
2018-11-26T18:24:50.255Z,82.36
2018-11-26T18:27:22.299Z,82.09
2018-11-26T18:29:58.463Z,81.92
2018-11-26T18:32:31.497Z,81.71
2018-11-26T18:35:02.200Z,81.68
2018-11-26T18:37:31.214Z,82.08
2018-11-26T18:40:07.657Z,82.23
2018-11-26T18:42:51.761Z,82.45
2018-11-26T18:45:29.715Z,82.14
2018-11-26T18:48:03.626Z,82.28
2018-11-26T18:50:32.766Z,82.56
2018-11-26T18:53:01.368Z,82.59
2018-11-26T18:55:30.777Z,82.51
2018-11-26T18:58:00.088Z,83.09
2018-11-26T19:00:32.003Z,83.14
2018-11-26T19:03:01.810Z,83.53
2018-11-26T19:05:30.685Z,84.03
2018-11-26T19:08:00.198Z,84.00
2018-11-26T19:10:31.204Z,84.18
2018-11-26T19:13:16.208Z,84.42
2018-11-26T19:16:13.563Z,84.79
2018-11-26T19:19:07.424Z,85.01
2018-11-26T19:21:45.606Z,85.03
2018-11-26T19:24:26.964Z,84.94
2018-11-26T19:27:02.611Z,84.72
2018-11-26T19:29:39.977Z,84.65
2018-11-26T19:32:13.347Z,84.10
2018-11-26T19:34:45.220Z,83.85
2018-11-26T19:37:17.628Z,83.92
2018-11-26T19:39:49.209Z,83.62
2018-11-26T19:42:23.534Z,83.83
2018-11-26T19:44:53.429Z,83.47
2018-11-26T19:47:25.314Z,83.31
2018-11-26T19:49:55.386Z,82.90
2018-11-26T19:52:31.011Z,82.67
2018-11-26T19:55:09.305Z,82.46
2018-11-26T19:57:39.230Z,82.80
2018-11-26T20:00:13.363Z,82.92
2018-11-26T20:02:42.821Z,83.14
2018-11-26T20:05:16.683Z,82.98
2018-11-26T20:07:46.551Z,83.50
2018-11-26T20:10:15.360Z,83.82
2018-11-26T20:12:43.924Z,84.06
2018-11-26T20:15:15.759Z,84.44
2018-11-26T20:17:44.367Z,84.86
2018-11-26T20:20:13.811Z,85.04
2018-11-26T20:22:43.836Z,85.20
2018-11-26T20:25:13.739Z,85.59
2018-11-26T20:27:43.140Z,85.77
2018-11-26T20:30:14.003Z,85.35
2018-11-26T20:32:44.974Z,85.24
2018-11-26T20:35:13.775Z,84.94
2018-11-26T20:37:42.870Z,84.80
2018-11-26T20:40:16.438Z,84.44
2018-11-26T20:42:50.799Z,84.20
2018-11-26T20:45:19.907Z,84.37
2018-11-26T20:47:50.172Z,84.36
2018-11-26T20:50:21.960Z,84.30
2018-11-26T20:52:51.707Z,84.36
2018-11-26T20:55:21.447Z,84.61
2018-11-26T20:57:52.608Z,84.40
2018-11-26T21:00:23.354Z,84.69
2018-11-26T21:02:54.096Z,84.04
2018-11-26T21:05:23.604Z,84.12
2018-11-26T21:07:53.034Z,83.79
2018-11-26T21:10:22.038Z,83.54
2018-11-26T21:12:51.162Z,83.21
2018-11-26T21:15:20.208Z,82.99
2018-11-26T21:17:51.896Z,83.23
2018-11-26T21:20:26.987Z,83.30
2018-11-26T21:22:57.293Z,83.17
2018-11-26T21:25:25.347Z,83.07
2018-11-26T21:27:55.295Z,83.06
2018-11-26T21:30:24.801Z,83.06
2018-11-26T21:32:53.385Z,82.47
2018-11-26T21:35:22.628Z,82.47
2018-11-26T21:37:53.178Z,82.37
2018-11-26T21:40:23.308Z,82.55
2018-11-26T21:42:53.033Z,82.31
2018-11-26T21:45:23.133Z,82.23
2018-11-26T21:47:52.432Z,82.73
2018-11-26T21:50:21.619Z,83.07
2018-11-26T21:52:50.521Z,83.00
2018-11-26T21:55:19.691Z,83.05
2018-11-26T21:57:49.060Z,83.48
2018-11-26T22:00:25.380Z,83.29
2018-11-26T22:02:54.563Z,83.10
2018-11-26T22:05:23.616Z,83.31
2018-11-26T22:07:52.857Z,83.21
2018-11-26T22:10:23.728Z,83.25
2018-11-26T22:12:54.025Z,83.23
2018-11-26T22:15:23.337Z,83.47
2018-11-26T22:17:52.478Z,83.45
2018-11-26T22:20:24.865Z,83.63
2018-11-26T22:22:54.546Z,83.29
2018-11-26T22:25:23.217Z,83.61
2018-11-26T22:27:52.731Z,83.63
2018-11-26T22:30:27.244Z,83.33
2018-11-26T22:32:56.149Z,83.37
2018-11-26T22:35:25.157Z,83.47
2018-11-26T22:37:54.750Z,83.32
2018-11-26T22:40:24.343Z,83.19
2018-11-26T22:42:52.975Z,83.38
2018-11-26T22:45:28.055Z,83.06
2018-11-26T22:48:06.775Z,83.28
2018-11-26T22:50:36.786Z,82.88
2018-11-26T22:53:06.144Z,83.02
2018-11-26T22:55:34.780Z,82.84
2018-11-26T22:58:03.558Z,82.87
2018-11-26T23:00:48.560Z,82.93
2018-11-26T23:03:18.519Z,82.68
2018-11-26T23:05:47.515Z,82.88
2018-11-26T23:08:16.873Z,83.04
2018-11-26T23:10:45.476Z,82.88
2018-11-26T23:13:14.471Z,82.72
2018-11-26T23:15:43.408Z,82.83
2018-11-26T23:18:13.826Z,83.08
2018-11-26T23:20:43.689Z,82.77
2018-11-26T23:23:12.254Z,82.78
2018-11-26T23:25:41.071Z,82.91
2018-11-26T23:28:10.502Z,82.88
2018-11-26T23:30:39.358Z,82.86
2018-11-26T23:33:08.418Z,82.72
2018-11-26T23:35:37.330Z,83.01
2018-11-26T23:38:06.508Z,82.69
2018-11-26T23:40:35.877Z,82.67
2018-11-26T23:43:05.252Z,82.96
2018-11-26T23:45:34.588Z,83.13
2018-11-26T23:48:04.421Z,83.39
2018-11-26T23:50:33.246Z,83.07
2018-11-26T23:53:01.831Z,83.21
2018-11-26T23:55:30.985Z,83.38
2018-11-26T23:58:00.595Z,83.63
